createdAt,value
2024-01-20T00:16:09.037Z,0.00
2024-01-20T02:48:07.284Z,0.00
2024-01-20T03:24:06.785Z,0.00
2024-01-20T03:49:06.695Z,0.00
2024-01-20T03:51:06.425Z,0.00
2024-01-20T04:15:06.154Z,0.00
2024-01-20T04:17:06.119Z,0.00
2024-01-20T05:05:05.606Z,0.00
2024-01-20T06:13:04.744Z,0.00
2024-01-20T07:10:04.027Z,152.00
2024-01-20T08:10:03.302Z,3680.00
2024-01-20T10:53:01.255Z,13868.00
2024-01-20T10:57:01.230Z,15424.00
2024-01-20T11:03:01.232Z,17376.00
2024-01-20T11:04:01.182Z,17344.00
2024-01-20T11:07:01.116Z,17088.00
2024-01-20T11:08:01.077Z,16404.00
2024-01-20T11:09:01.108Z,16340.00
2024-01-20T11:10:01.056Z,16472.00
2024-01-20T11:11:01.040Z,16552.00
2024-01-20T11:12:01.140Z,16408.00
2024-01-20T11:13:01.017Z,16148.00
2024-01-20T11:14:01.021Z,16268.00
2024-01-20T11:15:01.068Z,16292.00
2024-01-20T11:16:00.982Z,16032.00
2024-01-20T11:17:00.969Z,16196.00
2024-01-20T11:18:02.392Z,16440.00
2024-01-20T11:19:00.996Z,16368.00
2024-01-20T11:20:00.937Z,16712.00
2024-01-20T11:21:01.005Z,17472.00
2024-01-20T11:22:00.918Z,17984.00
2024-01-20T11:23:00.911Z,18240.00
2024-01-20T11:24:01.066Z,18432.00
2024-01-20T11:25:00.871Z,18560.00
2024-01-20T11:26:00.851Z,18688.00
2024-01-20T11:27:00.862Z,18752.00
2024-01-20T11:28:00.866Z,18592.00
2024-01-20T11:29:00.834Z,18176.00
2024-01-20T11:30:00.833Z,17952.00
2024-01-20T11:31:00.796Z,17984.00
2024-01-20T11:32:00.780Z,18304.00
2024-01-20T11:33:00.900Z,18464.00
2024-01-20T11:34:00.872Z,18496.00
2024-01-20T11:35:00.752Z,18272.00
2024-01-20T11:36:00.784Z,17984.00
2024-01-20T11:37:00.731Z,17344.00
2024-01-20T11:38:00.720Z,16868.00
2024-01-20T11:40:00.690Z,17920.00
2024-01-20T11:41:00.782Z,18496.00
2024-01-20T11:43:00.633Z,17920.00
2024-01-20T11:44:00.658Z,17984.00
2024-01-20T11:45:00.669Z,18464.00
2024-01-20T11:46:00.602Z,18496.00
2024-01-20T11:47:00.675Z,17920.00
2024-01-20T11:48:00.757Z,17440.00
2024-01-20T11:49:00.738Z,17664.00
2024-01-20T11:50:00.685Z,17984.00
2024-01-20T11:51:00.567Z,18528.00
2024-01-20T11:52:00.529Z,19232.00
2024-01-20T11:53:00.537Z,18976.00
2024-01-20T11:54:00.531Z,18240.00
2024-01-20T12:04:00.373Z,18336.00
2024-01-20T12:05:04.665Z,18720.00
2024-01-20T12:06:02.439Z,18272.00
2024-01-20T12:41:59.893Z,18112.00
2024-01-20T12:42:59.865Z,17920.00
2024-01-20T12:43:59.849Z,17856.00
2024-01-20T12:44:59.898Z,18112.00
2024-01-20T12:45:59.818Z,18432.00
2024-01-20T12:46:59.805Z,18304.00
2024-01-20T12:47:59.992Z,17792.00
2024-01-20T12:48:59.839Z,17600.00
2024-01-20T12:49:59.783Z,17536.00
2024-01-20T12:50:59.781Z,17312.00
2024-01-20T13:02:59.619Z,16864.00
2024-01-20T13:03:59.597Z,16344.00
2024-01-20T13:04:59.619Z,15688.00
2024-01-20T13:05:59.682Z,15148.00
2024-01-20T13:06:59.609Z,14888.00
2024-01-20T13:07:59.520Z,14648.00
2024-01-20T13:08:59.562Z,14264.00
2024-01-20T13:09:59.509Z,13760.00
2024-01-20T13:10:59.496Z,13272.00
2024-01-20T13:11:59.516Z,13040.00
2024-01-20T13:12:59.460Z,13120.00
2024-01-20T13:13:59.525Z,13452.00
2024-01-20T13:14:59.526Z,13620.00
2024-01-20T13:15:59.593Z,13072.00
2024-01-20T13:16:59.427Z,12296.00
2024-01-20T13:17:59.458Z,11956.00
2024-01-20T13:18:59.503Z,12148.00
2024-01-20T13:19:59.491Z,12108.00
2024-01-20T13:20:59.412Z,11492.00
2024-01-20T13:21:59.340Z,10696.00
2024-01-20T13:22:59.328Z,10164.00
2024-01-20T13:23:59.446Z,10088.00
2024-01-20T13:24:59.304Z,10104.00
2024-01-20T13:25:59.290Z,10128.00
2024-01-20T13:26:59.302Z,9960.00
2024-01-20T13:27:59.267Z,9956.00
2024-01-20T13:28:59.256Z,9756.00
2024-01-20T13:29:59.256Z,9496.00
2024-01-20T13:30:59.310Z,9340.00
2024-01-20T13:31:59.222Z,9244.00
2024-01-20T13:32:59.334Z,9260.00
2024-01-20T13:33:59.266Z,9164.00
2024-01-20T13:34:59.299Z,9032.00
2024-01-20T13:35:59.234Z,8924.00
2024-01-20T13:36:59.156Z,8948.00
2024-01-20T13:37:59.145Z,8924.00
2024-01-20T13:38:59.156Z,8760.00
2024-01-20T13:39:59.113Z,8656.00
2024-01-20T13:40:59.101Z,8592.00
2024-01-20T13:41:59.142Z,8536.00
2024-01-20T13:42:59.081Z,8408.00
2024-01-20T14:03:59.020Z,6884.00
2024-01-20T17:09:56.537Z,0.00
2024-01-20T17:12:56.487Z,0.00
2024-01-20T17:49:56.033Z,0.00
2024-01-20T22:32:52.718Z,0.00
2024-01-20T22:54:52.354Z,0.00
